Time;durP1;ratioP1;P1;durP2;ratioP2;P2;SDS_P1;SDS_P2;PMS_P1;PMS_P2;Temp;Humidity;BMP_temperature;BMP_pressure;BME280_temperature;BME280_humidity;BME280_pressure;Samples;Min_cycle;Max_cycle;Signal;HPM_P1;HPM_P2
2023/12/17 00:01:38;;;;;;;0.57;0.20;;;14.80;59.60;;;;;;5090880;28;20047;-66
2023/12/17 00:04:04;;;;;;;1.20;0.30;;;14.80;59.60;;;;;;5090898;28;20585;-67
2023/12/17 00:06:30;;;;;;;0.65;0.20;;;14.80;59.60;;;;;;5091834;28;20119;-67
2023/12/17 00:08:55;;;;;;;0.40;0.20;;;14.80;59.60;;;;;;5092297;28;20040;-67
2023/12/17 00:11:21;;;;;;;0.60;0.40;;;14.80;59.60;;;;;;5090410;28;20044;-67
2023/12/17 00:13:47;;;;;;;1.38;0.30;;;14.80;59.60;;;;;;5090787;28;20052;-67
2023/12/17 00:16:15;;;;;;;0.60;0.25;;;14.80;59.60;;;;;;5090657;28;20040;-67
2023/12/17 00:18:44;;;;;;;0.60;0.20;;;14.80;59.60;;;;;;5090434;28;20052;-66
2023/12/17 00:21:09;;;;;;;0.85;0.30;;;14.80;59.70;;;;;;5091718;28;20047;-67
2023/12/17 00:23:38;;;;;;;0.70;0.30;;;14.80;59.60;;;;;;5090370;28;20048;-67
2023/12/17 00:26:03;;;;;;;1.20;0.20;;;14.80;59.60;;;;;;5090656;28;20043;-67
2023/12/17 00:28:29;;;;;;;0.80;0.30;;;14.80;59.60;;;;;;5090596;28;20507;-67
2023/12/17 00:30:55;;;;;;;0.75;0.20;;;14.80;59.60;;;;;;5091853;28;20673;-67
2023/12/17 00:33:20;;;;;;;0.57;0.30;;;14.80;59.60;;;;;;5090359;28;20044;-67
2023/12/17 00:35:46;;;;;;;0.70;0.20;;;14.80;59.60;;;;;;5091526;28;20032;-67
2023/12/17 00:38:12;;;;;;;0.52;0.20;;;14.80;59.60;;;;;;5090374;28;20040;-67
2023/12/17 00:40:37;;;;;;;1.02;0.20;;;14.80;59.60;;;;;;5090149;28;20123;-67
2023/12/17 00:43:03;;;;;;;0.40;0.20;;;14.80;59.70;;;;;;5073380;28;20044;-67
2023/12/17 00:45:29;;;;;;;0.57;0.25;;;14.70;59.70;;;;;;5089978;28;20048;-67
2023/12/17 00:47:55;;;;;;;0.75;0.30;;;14.80;59.70;;;;;;5090134;28;20046;-67
2023/12/17 00:50:21;;;;;;;0.70;0.20;;;14.80;59.70;;;;;;5090266;28;20040;-67
2023/12/17 00:52:46;;;;;;;0.63;0.30;;;14.70;59.60;;;;;;5094378;28;20475;-67
2023/12/17 00:55:12;;;;;;;0.68;0.25;;;14.70;59.70;;;;;;5094150;28;20040;-67
2023/12/17 00:57:38;;;;;;;0.63;0.28;;;14.80;59.70;;;;;;5094909;28;20040;-67
2023/12/17 01:00:03;;;;;;;1.20;0.30;;;14.80;59.70;;;;;;5093648;28;20471;-67
2023/12/17 01:02:32;;;;;;;0.40;0.20;;;14.80;59.70;;;;;;5093537;28;20181;-67
2023/12/17 01:04:58;;;;;;;1.13;0.30;;;14.80;59.70;;;;;;5093604;28;20083;-66
2023/12/17 01:07:23;;;;;;;0.38;0.20;;;14.70;59.70;;;;;;5093445;28;20039;-67
2023/12/17 01:09:49;;;;;;;0.40;0.20;;;14.80;59.70;;;;;;5094706;28;20054;-67
2023/12/17 01:12:15;;;;;;;0.95;0.20;;;14.80;60.50;;;;;;5094730;28;20220;-67
2023/12/17 01:14:40;;;;;;;0.52;0.20;;;14.70;59.80;;;;;;5093925;28;20075;-67
2023/12/17 01:17:07;;;;;;;0.50;0.20;;;14.70;59.80;;;;;;5093556;28;20127;-67
2023/12/17 01:19:35;;;;;;;0.63;0.20;;;14.80;59.80;;;;;;5094992;28;20464;-66
2023/12/17 01:22:02;;;;;;;0.70;0.22;;;14.80;59.80;;;;;;5093567;28;20047;-67
2023/12/17 01:24:27;;;;;;;1.10;0.30;;;14.70;59.80;;;;;;5093191;28;20138;-67
2023/12/17 01:26:53;;;;;;;0.30;0.20;;;14.70;59.80;;;;;;5094427;28;20047;-67
2023/12/17 01:29:19;;;;;;;0.90;0.20;;;14.70;59.80;;;;;;5094796;28;20062;-67
2023/12/17 01:31:44;;;;;;;0.43;0.20;;;14.70;59.80;;;;;;5094601;28;20039;-67
2023/12/17 01:34:10;;;;;;;0.80;0.30;;;14.70;59.80;;;;;;5094320;28;20547;-67
2023/12/17 01:36:35;;;;;;;0.50;0.20;;;14.70;59.80;;;;;;5092952;28;20048;-66
2023/12/17 01:39:01;;;;;;;1.13;0.20;;;14.70;59.80;;;;;;5093117;28;20044;-67
2023/12/17 01:41:27;;;;;;;0.88;0.70;;;14.80;59.90;;;;;;5093178;28;20035;-67
2023/12/17 01:43:52;;;;;;;0.30;0.20;;;14.70;59.80;;;;;;5092285;28;20380;-67
2023/12/17 01:46:18;;;;;;;0.80;0.22;;;14.70;59.80;;;;;;5093031;28;20097;-67
2023/12/17 01:48:44;;;;;;;0.70;0.30;;;14.70;59.80;;;;;;5093070;28;20043;-67
2023/12/17 01:51:11;;;;;;;1.15;0.20;;;14.70;59.80;;;;;;5093028;28;20414;-67
2023/12/17 01:53:36;;;;;;;1.58;0.25;;;14.70;59.80;;;;;;5092595;28;20043;-67
2023/12/17 01:56:03;;;;;;;0.57;0.20;;;14.70;59.90;;;;;;5092891;28;20089;-67
2023/12/17 01:58:29;;;;;;;0.50;0.20;;;14.70;59.90;;;;;;5092408;28;20070;-67
2023/12/17 02:00:59;;;;;;;0.60;0.20;;;14.70;59.80;;;;;;5092744;28;20036;-67
2023/12/17 02:03:24;;;;;;;0.63;0.20;;;14.70;59.80;;;;;;5092634;28;20485;-67
2023/12/17 02:05:50;;;;;;;0.85;0.20;;;14.70;59.90;;;;;;5092436;28;20041;-67
2023/12/17 02:08:16;;;;;;;0.95;0.30;;;14.70;59.90;;;;;;5092520;28;20047;-66
2023/12/17 02:10:41;;;;;;;1.02;0.20;;;14.80;59.90;;;;;;5093692;28;20479;-67
2023/12/17 02:13:10;;;;;;;0.30;0.20;;;14.70;59.90;;;;;;5075682;28;20040;-67
2023/12/17 02:15:37;;;;;;;0.70;0.30;;;14.70;59.90;;;;;;5093946;28;20048;-67
2023/12/17 02:18:03;;;;;;;1.17;0.28;;;14.70;59.90;;;;;;5092187;28;20051;-67
2023/12/17 02:20:29;;;;;;;0.30;0.20;;;14.70;59.90;;;;;;5093635;28;20393;-67
2023/12/17 02:22:58;;;;;;;0.30;0.20;;;14.70;60.00;;;;;;5092658;28;20059;-66
2023/12/17 02:25:24;;;;;;;0.77;0.30;;;14.70;60.00;;;;;;5093139;28;20036;-67
2023/12/17 02:27:50;;;;;;;0.70;0.30;;;14.70;60.00;;;;;;5092096;28;20040;-67
2023/12/17 02:30:16;;;;;;;0.63;0.30;;;14.70;59.90;;;;;;5091856;28;20115;-67
2023/12/17 02:32:41;;;;;;;0.65;0.20;;;14.70;59.90;;;;;;5091971;28;20048;-67
2023/12/17 02:35:07;;;;;;;0.65;0.20;;;14.70;60.00;;;;;;5092551;28;20055;-66
2023/12/17 02:37:33;;;;;;;0.70;0.30;;;14.70;60.00;;;;;;5092002;28;20044;-67
2023/12/17 02:39:58;;;;;;;0.60;0.30;;;14.70;60.00;;;;;;5091694;28;20036;-67
2023/12/17 02:42:24;;;;;;;0.73;0.20;;;14.70;60.00;;;;;;5092091;28;20070;-67
2023/12/17 02:44:50;;;;;;;0.80;0.20;;;14.70;60.00;;;;;;5091315;28;20502;-67
2023/12/17 02:47:21;;;;;;;0.43;0.30;;;14.70;60.00;;;;;;5091908;28;20036;-67
2023/12/17 02:49:47;;;;;;;0.70;0.40;;;14.70;60.00;;;;;;5090888;28;20063;-67
2023/12/17 02:52:12;;;;;;;0.65;0.20;;;14.70;60.00;;;;;;5092884;28;20078;-67
2023/12/17 02:54:41;;;;;;;1.40;0.30;;;14.70;60.00;;;;;;5092876;28;20494;-67
2023/12/17 02:57:07;;;;;;;0.73;0.20;;;14.70;60.00;;;;;;5092839;28;20040;-67
2023/12/17 02:59:36;;;;;;;0.52;0.20;;;14.70;60.00;;;;;;5091569;28;20093;-67
2023/12/17 03:02:02;;;;;;;0.60;0.30;;;14.70;60.10;;;;;;5092903;28;20044;-66
2023/12/17 03:04:27;;;;;;;0.98;0.20;;;14.70;60.10;;;;;;5092535;28;20575;-67
2023/12/17 03:06:53;;;;;;;1.50;0.22;;;14.70;60.10;;;;;;5092570;28;20387;-67
2023/12/17 03:09:22;;;;;;;0.57;0.30;;;14.70;60.10;;;;;;5091308;28;20046;-67
2023/12/17 03:11:47;;;;;;;0.40;0.20;;;14.70;60.10;;;;;;5091450;28;20054;-67
2023/12/17 03:14:13;;;;;;;0.50;0.20;;;14.70;60.10;;;;;;5091019;28;20055;-67
2023/12/17 03:16:43;;;;;;;0.50;0.20;;;14.70;60.10;;;;;;5091496;28;20392;-66
2023/12/17 03:19:09;;;;;;;0.47;0.20;;;14.60;60.00;;;;;;5091140;28;20093;-67
2023/12/17 03:21:38;;;;;;;1.17;0.20;;;14.70;60.10;;;;;;5091470;28;20040;-67
2023/12/17 03:24:05;;;;;;;0.40;0.20;;;14.70;60.10;;;;;;5090996;28;20499;-66
2023/12/17 03:26:31;;;;;;;0.85;0.30;;;14.70;60.20;;;;;;5090988;28;20044;-67
2023/12/17 03:28:57;;;;;;;1.08;0.30;;;14.70;60.20;;;;;;5090584;28;20394;-67
2023/12/17 03:31:23;;;;;;;0.50;0.30;;;14.70;60.20;;;;;;5092105;28;20032;-67
2023/12/17 03:33:48;;;;;;;0.77;0.20;;;14.70;60.10;;;;;;5090968;28;20044;-66
2023/12/17 03:36:15;;;;;;;0.70;0.20;;;14.70;60.10;;;;;;5090837;28;20036;-66
2023/12/17 03:38:45;;;;;;;0.30;0.10;;;14.70;60.20;;;;;;5092361;28;20040;-67
2023/12/17 03:41:27;;;;;;;0.82;0.20;;;14.70;60.20;;;;;;5092201;28;20088;-66
2023/12/17 03:43:54;;;;;;;0.70;0.20;;;14.70;60.20;;;;;;5090740;28;20129;-67
2023/12/17 03:46:22;;;;;;;0.82;0.25;;;14.70;60.20;;;;;;5091859;28;20044;-67
2023/12/17 03:48:48;;;;;;;0.30;0.20;;;14.70;60.20;;;;;;5091019;28;20043;-67
2023/12/17 03:51:14;;;;;;;0.30;0.20;;;14.70;60.20;;;;;;5090715;28;20101;-67
2023/12/17 03:53:39;;;;;;;0.60;0.20;;;14.60;60.10;;;;;;5091939;28;20475;-67
2023/12/17 03:56:08;;;;;;;1.25;0.32;;;14.70;60.20;;;;;;5090967;28;20048;-67
2023/12/17 03:58:34;;;;;;;0.85;0.30;;;14.70;60.30;;;;;;5090562;28;20094;-67
2023/12/17 04:01:01;;;;;;;1.13;0.30;;;14.70;60.30;;;;;;5092107;28;20040;-67
2023/12/17 04:03:27;;;;;;;0.77;0.20;;;14.60;60.20;;;;;;5090534;28;20384;-67
2023/12/17 04:05:53;;;;;;;0.73;0.25;;;14.60;60.20;;;;;;5090071;28;20090;-67
2023/12/17 04:08:21;;;;;;;0.40;0.20;;;14.70;60.30;;;;;;5091627;28;20089;-68
2023/12/17 04:10:47;;;;;;;0.30;0.20;;;14.70;60.30;;;;;;5090814;28;20059;-66
2023/12/17 04:13:12;;;;;;;0.70;0.20;;;14.70;60.30;;;;;;5090719;28;20478;-67
2023/12/17 04:15:38;;;;;;;0.47;0.30;;;14.70;60.30;;;;;;5090529;28;20478;-67
2023/12/17 04:18:04;;;;;;;1.13;0.30;;;14.60;60.20;;;;;;5090440;28;20117;-67
2023/12/17 04:20:29;;;;;;;0.50;0.17;;;14.60;60.30;;;;;;5091793;28;20449;-67
2023/12/17 04:22:55;;;;;;;0.82;0.30;;;14.60;60.20;;;;;;5091817;28;20040;-67
2023/12/17 04:25:21;;;;;;;1.85;0.40;;;14.60;60.30;;;;;;5090407;28;20083;-67
2023/12/17 04:27:46;;;;;;;0.82;0.22;;;14.70;60.30;;;;;;5093790;28;20040;-66
2023/12/17 04:30:12;;;;;;;0.95;0.20;;;14.70;60.30;;;;;;5095588;28;20032;-67
2023/12/17 04:32:37;;;;;;;0.70;0.20;;;14.60;60.20;;;;;;5095760;28;20040;-67
2023/12/17 04:35:04;;;;;;;0.70;0.50;;;14.60;60.20;;;;;;5094144;28;20074;-67
2023/12/17 04:37:29;;;;;;;0.50;0.22;;;14.60;60.30;;;;;;5095539;28;20048;-67
2023/12/17 04:39:55;;;;;;;0.50;0.25;;;14.70;60.30;;;;;;5095396;28;20040;-67
2023/12/17 04:42:24;;;;;;;0.40;0.20;;;14.60;60.30;;;;;;5094444;28;20079;-67
2023/12/17 04:44:49;;;;;;;1.20;0.20;;;14.60;60.30;;;;;;5095168;28;20075;-67
2023/12/17 04:47:15;;;;;;;2.13;0.30;;;14.60;60.30;;;;;;5093940;28;20474;-67
2023/12/17 04:49:41;;;;;;;0.80;0.20;;;14.60;60.30;;;;;;5094129;28;20048;-67
2023/12/17 04:52:06;;;;;;;0.20;0.10;;;14.60;60.30;;;;;;5094214;28;20047;-67
2023/12/17 04:54:32;;;;;;;0.38;0.15;;;14.60;60.30;;;;;;5093733;28;20118;-67
2023/12/17 04:56:58;;;;;;;0.80;0.20;;;14.60;61.00;;;;;;5094075;28;20123;-67
2023/12/17 04:59:25;;;;;;;0.50;0.20;;;14.60;60.30;;;;;;5093568;28;20533;-67
2023/12/17 05:01:57;;;;;;;0.50;0.20;;;14.60;60.30;;;;;;5093695;28;20040;-67
2023/12/17 05:04:22;;;;;;;0.57;0.10;;;14.60;60.30;;;;;;5093451;28;20403;-67
2023/12/17 05:06:48;;;;;;;0.52;0.20;;;14.60;60.30;;;;;;5093829;28;20031;-67
2023/12/17 05:09:16;;;;;;;0.80;0.20;;;14.70;60.40;;;;;;5094809;28;20035;-67
2023/12/17 05:11:43;;;;;;;0.85;0.30;;;14.60;60.30;;;;;;5093529;28;20036;-67
2023/12/17 05:14:09;;;;;;;0.75;0.20;;;14.60;60.40;;;;;;5076764;28;20048;-67
2023/12/17 05:16:34;;;;;;;1.67;0.30;;;14.60;60.40;;;;;;5093046;28;20131;-67
2023/12/17 05:19:00;;;;;;;0.68;0.20;;;14.60;60.40;;;;;;5094672;28;20454;-66
2023/12/17 05:21:27;;;;;;;0.90;0.20;;;14.60;60.40;;;;;;5093223;28;20135;-66
2023/12/17 05:23:52;;;;;;;0.55;0.20;;;14.60;60.40;;;;;;5093453;28;20040;-67
2023/12/17 05:26:18;;;;;;;0.38;0.10;;;14.60;60.40;;;;;;5093323;28;20528;-67
2023/12/17 05:28:44;;;;;;;1.00;0.25;;;14.60;60.40;;;;;;5093128;28;20031;-68
2023/12/17 05:31:10;;;;;;;1.02;0.20;;;14.60;60.40;;;;;;5094508;28;20034;-67
2023/12/17 05:33:35;;;;;;;0.32;0.20;;;14.60;60.50;;;;;;5094446;28;20075;-67
2023/12/17 05:36:02;;;;;;;1.42;0.52;;;14.60;61.20;;;;;;5093126;28;20039;-67
2023/12/17 05:38:28;;;;;;;0.52;0.20;;;14.60;60.40;;;;;;5093963;28;20069;-67
2023/12/17 05:41:00;;;;;;;0.50;0.20;;;14.60;60.40;;;;;;5093204;28;20044;-67
2023/12/17 05:43:25;;;;;;;0.35;0.17;;;14.60;60.50;;;;;;5092846;28;20060;-67
2023/12/17 05:45:51;;;;;;;0.30;0.20;;;14.60;60.50;;;;;;5092715;28;20499;-67
2023/12/17 05:48:17;;;;;;;0.55;0.20;;;14.60;60.50;;;;;;5092781;28;20589;-67
2023/12/17 05:50:44;;;;;;;0.20;0.20;;;14.60;60.50;;;;;;5094378;28;20063;-66
2023/12/17 05:53:10;;;;;;;0.85;0.20;;;14.60;60.50;;;;;;5093108;28;20413;-67
2023/12/17 05:55:35;;;;;;;0.77;0.20;;;14.60;60.40;;;;;;5093962;28;20040;-67
2023/12/17 05:58:04;;;;;;;0.60;0.20;;;14.60;60.40;;;;;;5092557;28;20036;-66
2023/12/17 06:00:29;;;;;;;0.60;0.20;;;14.60;60.50;;;;;;5093773;28;20044;-67
2023/12/17 06:02:55;;;;;;;0.38;0.20;;;14.60;60.50;;;;;;5092746;28;20398;-67
2023/12/17 06:05:21;;;;;;;0.30;0.10;;;14.60;60.50;;;;;;5092379;28;20439;-66
2023/12/17 06:07:47;;;;;;;0.70;0.20;;;14.60;60.50;;;;;;5092524;28;20123;-67
2023/12/17 06:10:15;;;;;;;0.93;0.20;;;14.60;60.50;;;;;;5092577;28;20040;-67
2023/12/17 06:12:41;;;;;;;0.43;0.10;;;14.60;60.50;;;;;;5092192;28;20490;-67
2023/12/17 06:15:07;;;;;;;0.77;0.20;;;14.60;60.50;;;;;;5093533;28;20047;-67
2023/12/17 06:17:33;;;;;;;0.22;0.13;;;14.60;60.50;;;;;;5092456;28;20056;-67
2023/12/17 06:19:58;;;;;;;0.47;0.20;;;14.60;60.50;;;;;;5092225;28;20047;-67
2023/12/17 06:22:28;;;;;;;0.65;0.10;;;14.50;60.50;;;;;;5092563;28;20113;-67
2023/12/17 06:24:54;;;;;;;0.60;0.20;;;14.60;60.60;;;;;;5092241;28;20471;-67
2023/12/17 06:27:19;;;;;;;0.30;0.20;;;14.50;60.40;;;;;;5092252;28;20051;-67
2023/12/17 06:29:48;;;;;;;0.93;0.20;;;14.60;61.20;;;;;;5092019;28;20048;-67
2023/12/17 06:32:14;;;;;;;0.50;0.10;;;14.60;60.50;;;;;;5092223;28;20089;-67
2023/12/17 06:34:42;;;;;;;0.30;0.17;;;14.60;60.50;;;;;;5092355;28;20127;-67
2023/12/17 06:37:07;;;;;;;0.40;0.20;;;14.60;60.60;;;;;;5093060;28;20539;-67
2023/12/17 06:39:33;;;;;;;0.40;0.10;;;14.60;60.60;;;;;;5092242;28;20123;-67
2023/12/17 06:41:59;;;;;;;0.63;0.20;;;14.50;61.20;;;;;;5092043;28;20059;-67
2023/12/17 06:44:25;;;;;;;0.88;0.20;;;14.60;60.60;;;;;;5091432;28;20048;-67
2023/12/17 06:46:50;;;;;;;0.20;0.10;;;14.60;60.50;;;;;;5091596;28;20035;-67
2023/12/17 06:49:16;;;;;;;0.25;0.10;;;14.60;60.50;;;;;;5091140;28;20050;-66
2023/12/17 06:51:42;;;;;;;0.52;0.20;;;14.60;60.50;;;;;;5091965;28;20127;-67
2023/12/17 06:54:08;;;;;;;0.30;0.20;;;14.60;60.60;;;;;;5092038;28;20471;-66
2023/12/17 06:56:34;;;;;;;0.38;0.10;;;14.60;60.60;;;;;;5093113;28;20101;-67
2023/12/17 06:59:03;;;;;;;0.47;0.20;;;14.60;60.60;;;;;;5092537;28;20040;-67
2023/12/17 07:01:29;;;;;;;1.23;0.20;;;14.60;60.50;;;;;;5091397;28;20513;-67
2023/12/17 07:03:54;;;;;;;0.98;0.20;;;14.50;60.50;;;;;;5092571;28;20076;-67
2023/12/17 07:06:23;;;;;;;0.15;0.10;;;14.50;60.50;;;;;;5091397;28;20491;-67
2023/12/17 07:08:49;;;;;;;0.38;0.20;;;14.50;60.50;;;;;;5091210;28;20040;-67
2023/12/17 07:11:15;;;;;;;0.40;0.13;;;14.60;60.60;;;;;;5091343;28;20044;-67
2023/12/17 07:13:40;;;;;;;0.55;0.20;;;14.60;60.60;;;;;;5091100;28;20487;-66
2023/12/17 07:16:06;;;;;;;0.63;0.22;;;14.60;60.50;;;;;;5092731;28;20201;-67
2023/12/17 07:18:32;;;;;;;0.55;0.20;;;14.50;60.50;;;;;;5091119;28;20032;-67
2023/12/17 07:21:03;;;;;;;0.50;0.20;;;14.50;60.40;;;;;;5092595;28;20036;-67
2023/12/17 07:23:29;;;;;;;0.50;0.30;;;14.50;60.40;;;;;;5092318;28;20126;-67
2023/12/17 07:25:55;;;;;;;0.40;0.30;;;14.60;60.50;;;;;;5090936;28;20135;-66
2023/12/17 07:28:23;;;;;;;0.32;0.20;;;14.60;60.50;;;;;;5092208;28;20528;-67
2023/12/17 07:30:49;;;;;;;0.60;0.20;;;14.50;60.40;;;;;;5090919;28;20119;-67
2023/12/17 07:33:15;;;;;;;0.65;0.17;;;14.50;60.50;;;;;;5091285;28;20128;-67
2023/12/17 07:35:40;;;;;;;0.30;0.20;;;14.60;60.50;;;;;;5090894;28;20462;-66
2023/12/17 07:38:09;;;;;;;0.68;0.22;;;14.60;60.50;;;;;;5091261;28;20040;-67
2023/12/17 07:40:35;;;;;;;0.35;0.15;;;14.50;60.40;;;;;;5091044;28;20460;-67
2023/12/17 07:43:01;;;;;;;0.60;0.10;;;14.60;60.50;;;;;;5090583;28;20073;-67
2023/12/17 07:45:27;;;;;;;0.55;0.20;;;14.60;60.50;;;;;;5090614;28;20087;-67
2023/12/17 07:47:53;;;;;;;0.85;0.20;;;14.50;60.40;;;;;;5090222;28;20036;-67
2023/12/17 07:50:18;;;;;;;0.20;0.10;;;14.60;60.50;;;;;;5090863;28;20073;-66
2023/12/17 07:52:44;;;;;;;0.45;0.25;;;14.50;60.50;;;;;;5091015;28;20510;-67
2023/12/17 07:55:10;;;;;;;0.50;0.20;;;14.50;60.50;;;;;;5090921;28;20040;-67
2023/12/17 07:57:39;;;;;;;1.05;0.20;;;14.50;60.40;;;;;;5090966;28;20390;-67
2023/12/17 08:00:05;;;;;;;1.52;0.15;;;14.60;60.50;;;;;;5091074;28;20072;-67
2023/12/17 08:02:30;;;;;;;0.60;0.17;;;14.50;60.50;;;;;;5094853;28;20062;-67
2023/12/17 08:04:56;;;;;;;0.50;0.20;;;14.50;60.50;;;;;;5094084;28;20040;-67
2023/12/17 08:07:24;;;;;;;1.27;0.22;;;14.50;60.50;;;;;;5094866;28;20058;-66
2023/12/17 08:09:50;;;;;;;0.82;0.20;;;14.60;60.60;;;;;;5095016;28;20416;-67
2023/12/17 08:12:16;;;;;;;0.40;0.20;;;14.50;60.50;;;;;;5094554;28;20097;-67
2023/12/17 08:14:45;;;;;;;0.68;0.20;;;14.50;60.50;;;;;;5094752;28;20178;-67
2023/12/17 08:17:10;;;;;;;1.05;0.20;;;14.50;60.60;;;;;;5094532;28;20169;-67
2023/12/17 08:19:36;;;;;;;0.47;0.20;;;14.50;60.60;;;;;;5094335;28;20126;-67
2023/12/17 08:22:02;;;;;;;1.58;0.30;;;14.50;60.60;;;;;;5094504;28;20040;-67
2023/12/17 08:24:28;;;;;;;0.90;0.25;;;14.50;60.60;;;;;;5094533;28;20102;-67
2023/12/17 08:26:54;;;;;;;0.73;0.20;;;14.50;61.30;;;;;;5094203;28;20475;-67
2023/12/17 08:29:20;;;;;;;0.60;0.20;;;14.50;60.50;;;;;;5094306;28;20039;-67
2023/12/17 08:31:46;;;;;;;0.68;0.20;;;14.50;60.60;;;;;;5094320;28;20036;-67
2023/12/17 08:34:12;;;;;;;0.57;0.20;;;14.50;60.50;;;;;;5095521;28;20047;-67
2023/12/17 08:36:41;;;;;;;1.65;0.30;;;14.50;60.50;;;;;;5093946;28;20383;-67
2023/12/17 08:39:11;;;;;;;0.60;0.20;;;14.50;60.50;;;;;;5095399;28;20115;-67
2023/12/17 08:41:38;;;;;;;0.32;0.20;;;14.50;60.50;;;;;;5094558;28;20031;-67
2023/12/17 08:44:04;;;;;;;0.80;0.28;;;14.50;60.50;;;;;;5087815;28;20047;-67
2023/12/17 08:46:30;;;;;;;1.10;0.28;;;14.50;60.50;;;;;;5087775;28;20098;-67
2023/12/17 08:48:55;;;;;;;1.35;0.20;;;14.50;60.50;;;;;;5113141;28;20122;-67
2023/12/17 08:51:24;;;;;;;1.27;0.30;;;14.50;60.50;;;;;;5077182;28;20040;-67
2023/12/17 08:53:53;;;;;;;0.30;0.10;;;14.50;60.50;;;;;;5076651;28;20544;-67
2023/12/17 08:56:18;;;;;;;0.60;0.20;;;14.50;60.60;;;;;;5095194;28;20486;-67
2023/12/17 08:58:44;;;;;;;0.68;0.30;;;14.50;60.60;;;;;;5076932;28;20089;-67
2023/12/17 09:01:10;;;;;;;1.48;0.20;;;14.50;60.50;;;;;;5076808;28;20081;-67
2023/12/17 09:03:35;;;;;;;0.60;0.20;;;14.50;60.60;;;;;;5076728;28;20060;-67
2023/12/17 09:06:07;;;;;;;0.88;0.20;;;14.50;60.60;;;;;;5076869;28;20093;-67
2023/12/17 09:08:32;;;;;;;0.65;0.20;;;14.50;60.60;;;;;;5094812;28;20050;-67
2023/12/17 09:10:58;;;;;;;0.70;0.20;;;14.50;60.60;;;;;;5076925;28;20127;-67
2023/12/17 09:13:24;;;;;;;0.30;0.20;;;14.50;60.60;;;;;;5093880;28;20387;-67
2023/12/17 09:15:49;;;;;;;1.63;0.20;;;14.50;60.60;;;;;;5077200;28;20505;-67
2023/12/17 09:18:15;;;;;;;0.73;0.20;;;14.50;60.60;;;;;;5076865;28;20544;-67
2023/12/17 09:20:40;;;;;;;0.35;0.10;;;14.50;60.60;;;;;;5076740;28;20084;-67
2023/12/17 09:23:06;;;;;;;0.55;0.20;;;14.50;60.60;;;;;;5094731;28;20135;-67
2023/12/17 09:25:32;;;;;;;0.75;0.20;;;14.50;60.60;;;;;;5076413;28;20047;-67
2023/12/17 09:27:57;;;;;;;1.85;0.38;;;14.50;60.50;;;;;;5076270;28;20046;-67
2023/12/17 09:30:23;;;;;;;0.25;0.10;;;14.50;60.60;;;;;;5075750;28;20142;-67
2023/12/17 09:32:49;;;;;;;1.02;0.20;;;14.50;60.60;;;;;;5076280;28;20036;-66
2023/12/17 09:35:20;;;;;;;0.82;0.52;;;14.50;60.60;;;;;;5076636;28;20051;-68
2023/12/17 09:37:46;;;;;;;0.25;0.10;;;14.50;60.60;;;;;;5076308;28;20105;-67
2023/12/17 09:40:12;;;;;;;0.40;0.20;;;14.50;60.60;;;;;;5076402;28;20100;-67
2023/12/17 09:42:42;;;;;;;0.80;0.20;;;14.50;60.60;;;;;;5075944;28;20554;-67
2023/12/17 09:45:10;;;;;;;0.60;0.40;;;14.50;60.60;;;;;;5072784;28;20554;-67
2023/12/17 09:47:36;;;;;;;0.93;0.30;;;14.50;60.70;;;;;;5093031;28;20055;-67
2023/12/17 09:50:01;;;;;;;0.90;0.30;;;14.50;60.60;;;;;;5092820;28;20032;-67
2023/12/17 09:52:30;;;;;;;0.70;0.20;;;14.50;60.60;;;;;;5092812;28;20110;-67
2023/12/17 09:54:56;;;;;;;0.30;0.20;;;14.50;60.60;;;;;;5092940;28;20406;-67
2023/12/17 09:57:21;;;;;;;0.57;0.20;;;14.50;60.60;;;;;;5092989;28;20048;-67
2023/12/17 09:59:47;;;;;;;0.57;0.30;;;14.50;60.60;;;;;;5093886;28;20390;-67
2023/12/17 10:02:15;;;;;;;1.10;0.50;;;14.50;60.60;;;;;;5092666;28;20452;-67
2023/12/17 10:04:41;;;;;;;0.73;0.32;;;14.50;60.70;;;;;;5092626;28;20051;-67
2023/12/17 10:07:07;;;;;;;0.90;0.30;;;14.50;60.60;;;;;;5092607;28;20040;-67
2023/12/17 10:09:35;;;;;;;1.77;0.50;;;14.50;60.60;;;;;;5092437;28;20079;-67
2023/12/17 10:12:02;;;;;;;0.80;0.45;;;14.50;60.70;;;;;;5092364;28;20036;-67
2023/12/17 10:14:30;;;;;;;2.08;0.40;;;14.50;60.60;;;;;;5093626;28;20044;-67
2023/12/17 10:16:56;;;;;;;0.60;0.30;;;14.50;60.70;;;;;;5092799;28;20071;-67
2023/12/17 10:19:23;;;;;;;0.85;0.30;;;14.50;60.70;;;;;;5092285;28;20048;-67
2023/12/17 10:21:48;;;;;;;0.68;0.30;;;14.50;60.70;;;;;;5092463;28;20403;-67
2023/12/17 10:24:14;;;;;;;0.95;0.30;;;14.50;60.60;;;;;;5090960;28;20039;-67
2023/12/17 10:29:28;;;;;;;0.90;0.40;;;14.50;60.70;;;;;;5130867;27;20815;-67
2023/12/17 10:31:54;;;;;;;1.13;0.30;;;14.50;60.60;;;;;;5130595;27;20047;-67
2023/12/17 10:34:22;;;;;;;0.80;0.32;;;14.40;60.60;;;;;;5129321;28;20498;-66
2023/12/17 10:36:49;;;;;;;1.17;0.30;;;14.50;60.60;;;;;;5129119;28;20042;-66
2023/12/17 10:39:16;;;;;;;0.85;0.50;;;14.50;60.60;;;;;;5129295;28;20035;-67
2023/12/17 10:41:46;;;;;;;0.90;0.40;;;14.50;60.70;;;;;;5129140;28;20118;-67
2023/12/17 10:44:14;;;;;;;0.90;0.40;;;14.50;60.60;;;;;;5129254;27;20058;-66
2023/12/17 10:46:43;;;;;;;0.85;0.30;;;14.40;60.70;;;;;;5128800;28;20046;-67
2023/12/17 10:49:12;;;;;;;1.52;0.50;;;14.50;60.70;;;;;;5128670;28;20054;-67
2023/12/17 10:51:39;;;;;;;0.80;0.40;;;14.50;60.70;;;;;;5130071;28;20032;-67
2023/12/17 10:54:06;;;;;;;1.20;0.40;;;14.50;60.70;;;;;;5129187;27;20054;-67
2023/12/17 10:56:37;;;;;;;0.63;0.50;;;14.50;60.70;;;;;;5128436;28;20055;-67
2023/12/17 10:59:08;;;;;;;1.42;0.50;;;14.50;60.70;;;;;;5128845;28;20055;-68
2023/12/17 11:01:36;;;;;;;0.90;0.40;;;14.50;60.70;;;;;;5128838;28;20511;-67
2023/12/17 11:04:03;;;;;;;0.82;0.38;;;14.50;60.70;;;;;;5128761;28;20085;-66
2023/12/17 11:06:29;;;;;;;1.67;0.30;;;14.50;60.70;;;;;;5129684;28;20549;-67
2023/12/17 11:08:54;;;;;;;1.40;0.50;;;14.40;60.70;;;;;;5128190;28;20092;-67
2023/12/17 11:11:22;;;;;;;1.02;0.40;;;14.50;60.70;;;;;;5128270;28;20069;-67
2023/12/17 11:13:49;;;;;;;1.27;0.40;;;14.50;60.80;;;;;;5128238;28;20042;-67
2023/12/17 11:16:29;;;;;;;0.80;0.40;;;14.50;60.70;;;;;;5128142;28;20050;-67
2023/12/17 11:19:08;;;;;;;0.57;0.40;;;14.50;60.70;;;;;;5128227;28;20118;-67
2023/12/17 11:21:34;;;;;;;0.63;0.35;;;14.50;60.70;;;;;;5128281;28;20156;-66
2023/12/17 11:24:00;;;;;;;1.00;0.50;;;14.50;60.70;;;;;;5128354;28;20457;-67
2023/12/17 11:26:26;;;;;;;0.75;0.30;;;14.50;60.70;;;;;;5128380;28;20043;-67
2023/12/17 11:28:52;;;;;;;0.70;0.40;;;14.50;60.70;;;;;;5127803;28;20494;-67
2023/12/17 11:31:18;;;;;;;0.70;0.40;;;14.40;60.70;;;;;;5128207;28;20036;-67
2023/12/17 11:33:44;;;;;;;1.35;0.40;;;14.40;60.70;;;;;;5127808;28;20100;-66
2023/12/17 11:36:14;;;;;;;1.27;0.60;;;14.50;60.80;;;;;;5129062;28;20442;-67
2023/12/17 11:38:40;;;;;;;0.88;0.50;;;14.50;60.70;;;;;;5125581;28;20111;-67
2023/12/17 11:41:06;;;;;;;0.88;0.50;;;14.40;60.70;;;;;;5113958;28;20119;-67
2023/12/17 11:43:32;;;;;;;1.42;0.50;;;14.50;60.70;;;;;;5115383;28;20039;-67
2023/12/17 11:45:58;;;;;;;2.80;1.00;;;14.50;60.80;;;;;;5113999;28;20043;-67
2023/12/17 11:48:26;;;;;;;1.30;0.30;;;14.50;60.80;;;;;;5113840;28;20043;-67
2023/12/17 11:50:57;;;;;;;0.93;0.38;;;14.50;60.70;;;;;;5115176;28;20035;-68
2023/12/17 11:53:25;;;;;;;1.35;0.60;;;14.50;60.70;;;;;;5096863;28;20047;-67
2023/12/17 11:55:53;;;;;;;0.95;0.50;;;14.50;60.70;;;;;;5114112;28;20036;-67
2023/12/17 11:58:21;;;;;;;0.90;0.60;;;14.50;60.70;;;;;;5115090;28;20047;-67
2023/12/17 12:01:09;;;;;;;1.00;0.70;;;14.50;60.70;;;;;;5115109;28;20359;-67
2023/12/17 12:03:36;;;;;;;0.90;0.60;;;14.50;60.60;;;;;;5125970;27;20114;-67
2023/12/17 12:06:08;;;;;;;0.88;0.40;;;14.50;60.70;;;;;;5134175;27;20077;-67
2023/12/17 12:08:34;;;;;;;1.42;0.70;;;14.40;60.70;;;;;;5134093;27;20050;-66
2023/12/17 12:11:02;;;;;;;1.30;0.70;;;14.50;60.70;;;;;;5135442;27;20035;-66
2023/12/17 12:13:29;;;;;;;1.88;1.00;;;14.40;60.70;;;;;;5134537;27;20035;-68
2023/12/17 12:15:58;;;;;;;1.10;0.60;;;14.40;60.70;;;;;;5134683;27;20354;-67
2023/12/17 12:18:24;;;;;;;1.45;0.70;;;14.40;60.80;;;;;;5135474;27;20039;-67
2023/12/17 12:20:50;;;;;;;1.30;0.63;;;14.40;60.70;;;;;;5134101;27;20050;-67
2023/12/17 12:23:16;;;;;;;1.40;0.80;;;14.40;61.40;;;;;;5135674;27;20035;-67
2023/12/17 12:25:42;;;;;;;1.80;1.20;;;14.50;60.70;;;;;;5134434;27;20035;-67
2023/12/17 12:28:17;;;;;;;3.25;1.67;;;14.40;60.80;;;;;;5133665;27;20054;-67
2023/12/17 12:30:47;;;;;;;1.35;0.80;;;14.50;60.70;;;;;;5133733;27;20039;-67
2023/12/17 12:33:14;;;;;;;2.30;1.50;;;14.50;60.80;;;;;;5133987;27;20050;-67
2023/12/17 12:35:41;;;;;;;2.47;0.90;;;14.40;60.80;;;;;;5133526;27;20132;-67
2023/12/17 12:41:12;;;;;;;1.77;0.70;;;14.40;60.70;;;;;;5089368;27;20385;-67
2023/12/17 12:43:40;;;;;;;1.40;0.98;;;14.40;60.80;;;;;;5122093;28;20483;-67
2023/12/17 12:46:06;;;;;;;1.73;0.93;;;14.40;60.70;;;;;;5088239;28;20052;-67
2023/12/17 12:48:33;;;;;;;1.30;0.82;;;14.50;60.70;;;;;;5088149;28;20044;-67
2023/12/17 12:50:59;;;;;;;1.27;0.80;;;14.40;60.70;;;;;;5087732;28;20553;-67